Heathcote, New York
Current Conditions -  °F | °C
As of 4:56 AM on Friday 24 Oct 2014 (Local Time) from KHPN Reporting Station
Broken Clouds Broken Clouds  
Wind Chill: 45°   Ceiling: 9000
Heat Index: 49°   Visibility: 10mi
Dew Point: 44°   Wind: 9mph
Humidity: 83%   Direction: 310°NW
Pressure: 29.76"   Gusts: NA
Location:  40.989°N, 73.793°W
Report Text: KHPN 240856Z 31008KT 10SM SCT014 BKN090 09/07 A2976 RMK AO2 SLP081 T00940067 53008
Loading
Personal Weather Stations






























Interactive Weather Map
Tropical Storm Tracking
New forecast layout! Learn more

10-Day Weather Forecast

Advertisements
Track Severe Weather on mobile